Bow Clipper — LAUU4 — position and weather

sailwx.info

Track history (hours):
 
Tides and Currents Weather Stations Pressure Air Temp Water Temp Dewpoint Dewpoint Depression Visibility Wind Speed Wind Dir Waves Ship Positions

Bow Clipper

Last reported at 2014-Oct-12 13:18 UTC. Time now 2014-Oct-23 10:13 UTC.
Position N 50°32' E 000°04'.
Warning: this ship's position is 10 days out of date.

Length 188 m; draft 6.1 m.

Type: Ship (hazmat cat B). MMSI: 258946991.

Date/timePositionNaut miles runAvg speedWind from/ knotsBaromVisibWave heightAir tempDewpointWater temp
2014-Oct-12 13:18N 50°32' E 000°04'1012.9
2014-Oct-12 12:33N 50°35' E 000°19'1211.9
2014-Oct-12 11:33N 50°38' E 000°37'1212.4
2014-Oct-12 10:33N 50°45' E 000°53'1414.3
2014-Oct-12 09:33N 50°55' E 001°10'1616.2
2014-Oct-12 08:34N 51°05' E 001°30'1515.4
2014-Oct-12 07:33N 51°15' E 001°48'1313.1
2014-Oct-12 06:33N 51°25' E 002°02'1312.8
2014-Oct-12 05:33N 51°22' E 002°23'1313.0
2014-Oct-12 04:33N 51°22' E 002°43'1110.9
2014-Oct-12 03:33N 51°24' E 003°00'1010.2
2014-Oct-12 02:33N 51°25' E 003°17'9 9.2
2014-Oct-12 01:33N 51°25' E 003°32'7 7.2
2014-Oct-12 00:33N 51°24' E 003°43'9 8.8
2014-Oct-11 23:33N 51°23' E 003°57'7 7.5
2014-Oct-11 22:33N 51°23' E 004°09'6 5.6
2014-Oct-11 21:34N 51°21' E 004°17'1 0.6
2014-Oct-11 20:33N 51°21' E 004°18'1 1.1
2014-Oct-11 19:33N 51°20' E 004°19'4 3.9
2014-Oct-11 18:33N 51°16' E 004°21'1 0.7
2014-Oct-11 17:33N 51°15' E 004°22'0 0.0
2014-Oct-11 16:33N 51°15' E 004°22'0 0.0
2014-Oct-11 15:33N 51°15' E 004°22'0 0.0
2014-Oct-11 14:33N 51°15' E 004°22'0 0.0
2014-Oct-11 13:33N 51°15' E 004°22'0 0.0
2014-Oct-11 12:33N 51°15' E 004°22'0 0.0
2014-Oct-11 11:33N 51°15' E 004°22'0 0.0
2014-Oct-11 10:33N 51°15' E 004°22'0 0.0
2014-Oct-11 09:33N 51°15' E 004°22'0 0.0
2014-Oct-11 08:33N 51°15' E 004°22'0 0.0
2014-Oct-11 07:27N 51°15' E 004°22'0 0.0
2014-Oct-11 06:33N 51°15' E 004°22'0 0.0
2014-Oct-11 05:27N 51°15' E 004°22'0 0.0
2014-Oct-11 04:33N 51°15' E 004°22'0 0.2
2014-Oct-11 03:33N 51°16' E 004°22'0 0.0
2014-Oct-11 02:21N 51°16' E 004°22'0 0.0
2014-Oct-11 01:33N 51°16' E 004°22'0 0.0
2014-Oct-11 00:33N 51°16' E 004°22'0 0.0
2014-Oct-10 23:33N 51°16' E 004°22'0 0.0
2014-Oct-10 22:33N 51°16' E 004°22'0 0.0
2014-Oct-10 21:26N 51°16' E 004°22'0 0.0
2014-Oct-10 20:32N 51°16' E 004°22'0 0.0
2014-Oct-10 19:32N 51°16' E 004°22'0 0.0
2014-Oct-10 18:32N 51°16' E 004°22'0 0.0
2014-Oct-10 17:32N 51°16' E 004°22'0 0.0
2014-Oct-10 16:32N 51°16' E 004°22'0 0.0
2014-Oct-10 15:32N 51°16' E 004°22'0 0.0
2014-Oct-10 14:32N 51°16' E 004°22'0 0.0
2014-Oct-10 13:32N 51°16' E 004°22'0 0.0
2014-Oct-10 12:32N 51°16' E 004°22'0 0.0
2014-Oct-10 11:32N 51°16' E 004°22'0 0.0
2014-Oct-10 10:29N 51°16' E 004°22'0 0.0
2014-Oct-10 09:29N 51°16' E 004°22'0 0.0
2014-Oct-10 08:32N 51°16' E 004°22'0 0.0
2014-Oct-10 07:31N 51°16' E 004°22'0 0.0
2014-Oct-10 06:28N 51°16' E 004°22'0 0.0
2014-Oct-10 05:28N 51°16' E 004°22'0 0.0
2014-Oct-10 04:31N 51°16' E 004°22'0 0.0
2014-Oct-10 03:31N 51°16' E 004°22'0 0.0
2014-Oct-10 02:31N 51°16' E 004°22'0 0.0
2014-Oct-10 01:31N 51°16' E 004°22'0 0.0
2014-Oct-10 00:31N 51°16' E 004°22'0 0.0
2014-Oct-09 23:31N 51°16' E 004°22'0 0.0
2014-Oct-09 22:28N 51°16' E 004°22'0 0.0
2014-Oct-09 21:31N 51°16' E 004°22'0 0.0
2014-Oct-09 20:31N 51°16' E 004°22'0 0.0
2014-Oct-09 19:31N 51°16' E 004°22'0 0.0
2014-Oct-09 18:31N 51°16' E 004°22'0 0.0
2014-Oct-09 17:31N 51°16' E 004°22'0 0.0
2014-Oct-09 16:31N 51°16' E 004°22'0 0.0
2014-Oct-09 15:25N 51°16' E 004°22'0 0.0
2014-Oct-09 14:31N 51°16' E 004°22'0 0.0
2014-Oct-09 13:31N 51°16' E 004°22'0 0.0
2014-Oct-09 12:28N 51°16' E 004°22'0 0.0
2014-Oct-09 11:31N 51°16' E 004°22'0 0.0
2014-Oct-09 10:28N 51°16' E 004°22'0 0.0
2014-Oct-09 09:31N 51°16' E 004°22'0 0.0
2014-Oct-09 08:31N 51°16' E 004°22'0 0.0
2014-Oct-09 07:31N 51°16' E 004°22'0 0.0
2014-Oct-09 06:31N 51°16' E 004°22'0 0.0
2014-Oct-09 05:31N 51°16' E 004°22'0 0.0
2014-Oct-09 04:31N 51°16' E 004°22'0 0.0
2014-Oct-09 03:31N 51°16' E 004°22'0 0.0
2014-Oct-09 02:28N 51°16' E 004°22'0 0.0
2014-Oct-09 01:31N 51°16' E 004°22'0 0.0
2014-Oct-09 00:31N 51°16' E 004°22'0 0.0
2014-Oct-08 23:28N 51°16' E 004°22'0 0.4
2014-Oct-08 22:33N 51°16' E 004°21'5 4.7
2014-Oct-08 21:33N 51°20' E 004°18'1 1.0
2014-Oct-08 20:33N 51°21' E 004°17'1 0.5
2014-Oct-08 19:33N 51°21' E 004°17'0 0.1
2014-Oct-08 18:33N 51°21' E 004°16'4 4.2
2014-Oct-08 17:34N 51°17' E 004°19'2 2.1
2014-Oct-08 16:33N 51°16' E 004°17'1 0.7
2014-Oct-08 15:33N 51°16' E 004°16'0 0.0
2014-Oct-06 13:24N 51°16' E 004°16'2 2.1
2014-Oct-06 12:33N 51°17' E 004°14'0 0.0
2014-Oct-06 09:27N 51°17' E 004°14'0 0.0
2014-Oct-06 06:12N 51°17' E 004°14'0 0.0
2014-Oct-06 01:03N 51°17' E 004°14'0 0.0
2014-Oct-05 20:33N 51°17' E 004°14'0 0.0
2014-Oct-05 19:27N 51°17' E 004°14'0 0.0
2014-Oct-05 18:24N 51°17' E 004°14'0 0.0
2014-Oct-05 17:21N 51°17' E 004°14'0 0.0
2014-Oct-05 11:03N 51°17' E 004°14'0 0.0
2014-Oct-05 10:03N 51°17' E 004°14'0 0.0
2014-Oct-05 04:24N 51°17' E 004°14'0 0.0
2014-Oct-04 14:21N 51°17' E 004°14'0 0.0
2014-Oct-04 13:06N 51°17' E 004°14'0 0.0
2014-Oct-04 12:30N 51°17' E 004°14'0 0.0
2014-Oct-04 01:24N 51°17' E 004°14'2 2.0
2014-Oct-04 00:32N 51°16' E 004°15'0 0.0
2014-Oct-03 04:26N 51°16' E 004°15'1 0.8
2014-Oct-03 03:34N 51°16' E 004°17'2 2.1
2014-Oct-03 02:34N 51°17' E 004°19'8 8.3
2014-Oct-03 01:33N 51°23' E 004°10'8 7.8
2014-Oct-03 00:33N 51°24' E 003°58'9 9.3
2014-Oct-02 23:33N 51°23' E 003°43'9 8.8
2014-Oct-02 22:33N 51°25' E 003°29'2713.1
2014-Oct-02 20:31N 51°24' E 002°46'7 6.9
2014-Oct-02 19:30N 51°26' E 002°35'0 0.0
2014-Oct-02 18:33N 51°26' E 002°35'0 0.0
2014-Oct-02 17:33N 51°26' E 002°35'0 0.0
2014-Oct-02 16:31N 51°26' E 002°35'0 0.0
2014-Oct-02 15:31N 51°26' E 002°35'0 0.0
2014-Oct-02 14:31N 51°26' E 002°35'0 0.0
2014-Oct-02 13:31N 51°26' E 002°35'  
Track history (hours):
 
Tides and Currents Weather Stations Pressure Air Temp Water Temp Dewpoint Dewpoint Depression Visibility Wind Speed Wind Dir Waves Ship Positions

Bow Clipper

Last reported at 2014-Oct-12 13:18 UTC. Time now 2014-Oct-23 10:13 UTC.
Position N 50°32' E 000°04'.
Warning: this ship's position is 10 days out of date.

Length 188 m; draft 6.1 m.

Type: Ship (hazmat cat B). MMSI: 258946991.

Date/timePositionNaut miles runAvg speedWind from/ knotsBaromVisibWave heightAir tempDewpointWater temp
2014-Oct-12 13:18N 50°32' E 000°04'1012.9
2014-Oct-12 12:33N 50°35' E 000°19'1211.9
2014-Oct-12 11:33N 50°38' E 000°37'1212.4
2014-Oct-12 10:33N 50°45' E 000°53'1414.3
2014-Oct-12 09:33N 50°55' E 001°10'1616.2
2014-Oct-12 08:34N 51°05' E 001°30'1515.4
2014-Oct-12 07:33N 51°15' E 001°48'1313.1
2014-Oct-12 06:33N 51°25' E 002°02'1312.8
2014-Oct-12 05:33N 51°22' E 002°23'1313.0
2014-Oct-12 04:33N 51°22' E 002°43'1110.9
2014-Oct-12 03:33N 51°24' E 003°00'1010.2
2014-Oct-12 02:33N 51°25' E 003°17'9 9.2
2014-Oct-12 01:33N 51°25' E 003°32'7 7.2
2014-Oct-12 00:33N 51°24' E 003°43'9 8.8
2014-Oct-11 23:33N 51°23' E 003°57'7 7.5
2014-Oct-11 22:33N 51°23' E 004°09'6 5.6
2014-Oct-11 21:34N 51°21' E 004°17'1 0.6
2014-Oct-11 20:33N 51°21' E 004°18'1 1.1
2014-Oct-11 19:33N 51°20' E 004°19'4 3.9
2014-Oct-11 18:33N 51°16' E 004°21'1 0.7
2014-Oct-11 17:33N 51°15' E 004°22'0 0.0
2014-Oct-11 16:33N 51°15' E 004°22'0 0.0
2014-Oct-11 15:33N 51°15' E 004°22'0 0.0
2014-Oct-11 14:33N 51°15' E 004°22'0 0.0
2014-Oct-11 13:33N 51°15' E 004°22'0 0.0
2014-Oct-11 12:33N 51°15' E 004°22'0 0.0
2014-Oct-11 11:33N 51°15' E 004°22'0 0.0
2014-Oct-11 10:33N 51°15' E 004°22'0 0.0
2014-Oct-11 09:33N 51°15' E 004°22'0 0.0
2014-Oct-11 08:33N 51°15' E 004°22'0 0.0
2014-Oct-11 07:27N 51°15' E 004°22'0 0.0
2014-Oct-11 06:33N 51°15' E 004°22'0 0.0
2014-Oct-11 05:27N 51°15' E 004°22'0 0.0
2014-Oct-11 04:33N 51°15' E 004°22'0 0.2
2014-Oct-11 03:33N 51°16' E 004°22'0 0.0
2014-Oct-11 02:21N 51°16' E 004°22'0 0.0
2014-Oct-11 01:33N 51°16' E 004°22'0 0.0
2014-Oct-11 00:33N 51°16' E 004°22'0 0.0
2014-Oct-10 23:33N 51°16' E 004°22'0 0.0
2014-Oct-10 22:33N 51°16' E 004°22'0 0.0
2014-Oct-10 21:26N 51°16' E 004°22'0 0.0
2014-Oct-10 20:32N 51°16' E 004°22'0 0.0
2014-Oct-10 19:32N 51°16' E 004°22'0 0.0
2014-Oct-10 18:32N 51°16' E 004°22'0 0.0
2014-Oct-10 17:32N 51°16' E 004°22'0 0.0
2014-Oct-10 16:32N 51°16' E 004°22'0 0.0
2014-Oct-10 15:32N 51°16' E 004°22'0 0.0
2014-Oct-10 14:32N 51°16' E 004°22'0 0.0
2014-Oct-10 13:32N 51°16' E 004°22'0 0.0
2014-Oct-10 12:32N 51°16' E 004°22'0 0.0
2014-Oct-10 11:32N 51°16' E 004°22'0 0.0
2014-Oct-10 10:29N 51°16' E 004°22'0 0.0
2014-Oct-10 09:29N 51°16' E 004°22'0 0.0
2014-Oct-10 08:32N 51°16' E 004°22'0 0.0
2014-Oct-10 07:31N 51°16' E 004°22'0 0.0
2014-Oct-10 06:28N 51°16' E 004°22'0 0.0
2014-Oct-10 05:28N 51°16' E 004°22'0 0.0
2014-Oct-10 04:31N 51°16' E 004°22'0 0.0
2014-Oct-10 03:31N 51°16' E 004°22'0 0.0
2014-Oct-10 02:31N 51°16' E 004°22'0 0.0
2014-Oct-10 01:31N 51°16' E 004°22'0 0.0
2014-Oct-10 00:31N 51°16' E 004°22'0 0.0
2014-Oct-09 23:31N 51°16' E 004°22'0 0.0
2014-Oct-09 22:28N 51°16' E 004°22'0 0.0
2014-Oct-09 21:31N 51°16' E 004°22'0 0.0
2014-Oct-09 20:31N 51°16' E 004°22'0 0.0
2014-Oct-09 19:31N 51°16' E 004°22'0 0.0
2014-Oct-09 18:31N 51°16' E 004°22'0 0.0
2014-Oct-09 17:31N 51°16' E 004°22'0 0.0
2014-Oct-09 16:31N 51°16' E 004°22'0 0.0
2014-Oct-09 15:25N 51°16' E 004°22'0 0.0
2014-Oct-09 14:31N 51°16' E 004°22'0 0.0
2014-Oct-09 13:31N 51°16' E 004°22'0 0.0
2014-Oct-09 12:28N 51°16' E 004°22'0 0.0
2014-Oct-09 11:31N 51°16' E 004°22'0 0.0
2014-Oct-09 10:28N 51°16' E 004°22'0 0.0
2014-Oct-09 09:31N 51°16' E 004°22'0 0.0
2014-Oct-09 08:31N 51°16' E 004°22'0 0.0
2014-Oct-09 07:31N 51°16' E 004°22'0 0.0
2014-Oct-09 06:31N 51°16' E 004°22'0 0.0
2014-Oct-09 05:31N 51°16' E 004°22'0 0.0
2014-Oct-09 04:31N 51°16' E 004°22'0 0.0
2014-Oct-09 03:31N 51°16' E 004°22'0 0.0
2014-Oct-09 02:28N 51°16' E 004°22'0 0.0
2014-Oct-09 01:31N 51°16' E 004°22'0 0.0
2014-Oct-09 00:31N 51°16' E 004°22'0 0.0
2014-Oct-08 23:28N 51°16' E 004°22'0 0.4
2014-Oct-08 22:33N 51°16' E 004°21'5 4.7
2014-Oct-08 21:33N 51°20' E 004°18'1 1.0
2014-Oct-08 20:33N 51°21' E 004°17'1 0.5
2014-Oct-08 19:33N 51°21' E 004°17'0 0.1
2014-Oct-08 18:33N 51°21' E 004°16'4 4.2
2014-Oct-08 17:34N 51°17' E 004°19'2 2.1
2014-Oct-08 16:33N 51°16' E 004°17'1 0.7
2014-Oct-08 15:33N 51°16' E 004°16'0 0.0
2014-Oct-06 13:24N 51°16' E 004°16'2 2.1
2014-Oct-06 12:33N 51°17' E 004°14'0 0.0
2014-Oct-06 09:27N 51°17' E 004°14'0 0.0
2014-Oct-06 06:12N 51°17' E 004°14'0 0.0
2014-Oct-06 01:03N 51°17' E 004°14'0 0.0
2014-Oct-05 20:33N 51°17' E 004°14'0 0.0
2014-Oct-05 19:27N 51°17' E 004°14'0 0.0
2014-Oct-05 18:24N 51°17' E 004°14'0 0.0
2014-Oct-05 17:21N 51°17' E 004°14'0 0.0
2014-Oct-05 11:03N 51°17' E 004°14'0 0.0
2014-Oct-05 10:03N 51°17' E 004°14'0 0.0
2014-Oct-05 04:24N 51°17' E 004°14'0 0.0
2014-Oct-04 14:21N 51°17' E 004°14'0 0.0
2014-Oct-04 13:06N 51°17' E 004°14'0 0.0
2014-Oct-04 12:30N 51°17' E 004°14'0 0.0
2014-Oct-04 01:24N 51°17' E 004°14'2 2.0
2014-Oct-04 00:32N 51°16' E 004°15'0 0.0
2014-Oct-03 04:26N 51°16' E 004°15'1 0.8
2014-Oct-03 03:34N 51°16' E 004°17'2 2.1
2014-Oct-03 02:34N 51°17' E 004°19'8 8.3
2014-Oct-03 01:33N 51°23' E 004°10'8 7.8
2014-Oct-03 00:33N 51°24' E 003°58'9 9.3
2014-Oct-02 23:33N 51°23' E 003°43'9 8.8
2014-Oct-02 22:33N 51°25' E 003°29'2713.1
2014-Oct-02 20:31N 51°24' E 002°46'7 6.9
2014-Oct-02 19:30N 51°26' E 002°35'0 0.0
2014-Oct-02 18:33N 51°26' E 002°35'0 0.0
2014-Oct-02 17:33N 51°26' E 002°35'0 0.0
2014-Oct-02 16:31N 51°26' E 002°35'0 0.0
2014-Oct-02 15:31N 51°26' E 002°35'0 0.0
2014-Oct-02 14:31N 51°26' E 002°35'0 0.0
2014-Oct-02 13:31N 51°26' E 002°35'  

Dump ship's entire track history